Time;durP1;ratioP1;P1;durP2;ratioP2;P2;SDS_P1;SDS_P2;PMS_P1;PMS_P2;Temp;Humidity;BMP_temperature;BMP_pressure;BME280_temperature;BME280_humidity;BME280_pressure;Samples;Min_cycle;Max_cycle;Signal;HPM_P1;HPM_P2
2020/12/04 04:33:33;;;;;;;15.20;11.60;;;;;;;7.40;50.05;96237.78;6781630;29;20239;-80
2020/12/04 04:36:54;;;;;;;16.67;11.60;;;;;;;7.25;50.88;96267.03;6794440;29;20208;-80
2020/12/04 04:40:15;;;;;;;15.57;11.03;;;;;;;7.67;50.21;96276.19;6794978;29;20571;-80
2020/12/04 04:43:36;;;;;;;16.07;12.00;;;;;;;7.66;49.82;96269.22;6794641;29;20674;-81
2020/12/04 04:47:04;;;;;;;16.73;11.17;;;;;;;7.41;50.81;96278.78;6793076;29;20196;-80
2020/12/04 04:50:26;;;;;;;16.37;12.30;;;;;;;7.28;50.95;96271.91;6791866;29;20573;-79
2020/12/04 04:53:52;;;;;;;16.50;11.33;;;;;;;7.27;51.46;96297.09;6790366;29;20231;-79
2020/12/04 04:57:14;;;;;;;16.43;11.63;;;;;;;7.57;50.90;96278.75;6790133;29;20210;-78
2020/12/04 05:00:35;;;;;;;14.90;11.03;;;;;;;7.90;50.29;96296.63;6789627;29;20230;-78
2020/12/04 05:03:58;;;;;;;17.60;11.20;;;;;;;8.01;49.70;96306.41;6789660;29;20744;-79
2020/12/04 05:07:27;;;;;;;15.03;11.07;;;;;;;8.11;49.76;96296.63;6789227;29;20216;-78
2020/12/04 05:10:49;;;;;;;14.97;11.10;;;;;;;7.90;49.94;96275.16;6789245;29;20227;-79
2020/12/04 05:14:15;;;;;;;20.47;13.67;;;;;;;8.22;49.70;96281.47;6790861;29;20694;-78
2020/12/04 05:17:36;;;;;;;13.37;11.10;;;;;;;8.15;49.63;96268.22;6789908;29;20220;-79
2020/12/04 05:20:58;;;;;;;17.93;10.77;;;;;;;7.62;50.52;96222.53;6788564;29;20229;-81
2020/12/04 05:24:27;;;;;;;14.23;11.10;;;;;;;7.18;52.42;96297.75;6789715;29;20217;-81
2020/12/04 05:27:48;;;;;;;16.43;10.67;;;;;;;6.93;53.58;96284.75;6789199;29;20196;-79
2020/12/04 05:31:10;;;;;;;14.67;10.47;;;;;;;7.42;52.27;96267.03;6797425;29;20241;-80
2020/12/04 05:34:31;;;;;;;13.00;10.47;;;;;;;6.84;53.57;96259.41;6790585;29;20245;-80
2020/12/04 05:38:11;;;;;;;13.70;10.40;;;;;;;7.51;52.93;96269.03;6790962;29;20247;-80
2020/12/04 05:41:45;;;;;;;14.70;10.27;;;;;;;7.73;52.16;96258.31;6790051;29;20231;-79
2020/12/04 05:45:06;;;;;;;12.20;8.83;;;;;;;7.24;51.20;96248.53;6790312;29;20206;-79
2020/12/04 05:48:28;;;;;;;11.17;8.10;;;;;;;6.45;53.53;96204.19;6790520;29;20220;-79
2020/12/04 05:51:53;;;;;;;11.90;8.50;;;;;;;7.64;50.07;96217.72;6789868;29;20722;-79
2020/12/04 05:55:15;;;;;;;11.80;8.77;;;;;;;8.22;49.33;96225.09;6791448;29;20321;-80
2020/12/04 05:58:37;;;;;;;12.97;8.80;;;;;;;7.96;49.35;96223.19;6791145;29;20218;-80
2020/12/04 06:01:58;;;;;;;13.73;8.90;;;;;;;8.14;48.04;96210.22;6815422;29;20219;-79
2020/12/04 06:05:19;;;;;;;13.90;9.53;;;;;;;8.40;47.40;96227.44;6817272;29;20215;-79
2020/12/04 06:08:40;;;;;;;8.87;7.67;;;;;;;8.11;47.10;96228.72;6819702;29;20216;-81
2020/12/04 06:12:02;;;;;;;10.20;8.23;;;;;;;8.12;47.31;96228.47;6816126;29;20236;-82
2020/12/04 06:15:25;;;;;;;11.87;7.93;;;;;;;7.48;48.33;96226.63;6816248;29;20207;-82
2020/12/04 06:18:46;;;;;;;10.27;7.77;;;;;;;7.60;47.80;96180.94;6815629;29;20207;-79
2020/12/04 06:22:09;;;;;;;9.23;7.47;;;;;;;8.06;47.11;96240.22;6813075;29;20223;-79
2020/12/04 06:25:55;;;;;;;12.60;8.90;;;;;;;7.99;47.54;96220.81;6813052;29;20211;-84
2020/12/04 06:29:16;;;;;;;14.43;8.77;;;;;;;8.15;46.23;96194.97;6812894;29;20205;-79
2020/12/04 06:32:41;;;;;;;11.23;8.33;;;;;;;8.05;47.47;96221.66;6813434;29;20240;-79
2020/12/04 06:36:04;;;;;;;10.27;7.67;;;;;;;7.60;47.86;96195.13;6813606;29;20254;-79
2020/12/04 06:39:30;;;;;;;10.63;8.50;;;;;;;8.05;47.55;96219.81;6812662;29;20209;-79
2020/12/04 06:42:52;;;;;;;10.87;8.23;;;;;;;8.01;47.13;96201.78;6813820;29;20311;-79
2020/12/04 06:46:27;;;;;;;11.27;9.20;;;;;;;7.48;49.36;96213.22;6813509;29;20220;-79
2020/12/04 06:49:49;;;;;;;9.33;7.93;;;;;;;7.96;47.71;96212.47;6813781;29;20222;-79
2020/12/04 06:53:12;;;;;;;10.63;8.33;;;;;;;8.20;47.18;96211.94;6814846;29;20240;-79
2020/12/04 06:56:34;;;;;;;11.90;8.43;;;;;;;8.54;46.86;96194.56;6814108;29;20201;-79
2020/12/04 06:59:55;;;;;;;11.23;8.43;;;;;;;8.55;46.36;96193.47;6814879;29;20220;-80
2020/12/04 07:03:16;;;;;;;12.07;8.97;;;;;;;8.35;47.58;96211.28;6815994;29;20214;-81
2020/12/04 07:06:38;;;;;;;13.87;9.70;;;;;;;7.87;47.20;96145.03;6817755;29;20211;-81
2020/12/04 07:10:01;;;;;;;11.83;9.17;;;;;;;8.42;46.98;96199.28;6815735;29;20226;-81
2020/12/04 07:13:22;;;;;;;12.67;8.60;;;;;;;8.38;47.56;96190.09;6814584;29;20243;-81
2020/12/04 07:16:43;;;;;;;12.07;8.27;;;;;;;8.44;46.20;96166.81;6815325;29;20587;-81
2020/12/04 07:20:04;;;;;;;12.27;9.40;;;;;;;8.23;46.87;96202.56;6813877;29;20237;-81
2020/12/04 07:23:26;;;;;;;10.97;8.83;;;;;;;7.81;47.78;96213.09;6813763;29;20231;-82
2020/12/04 07:26:53;;;;;;;10.97;8.70;;;;;;;7.63;47.15;96191.16;6814750;29;20218;-82
2020/12/04 07:30:14;;;;;;;12.27;9.93;;;;;;;8.28;46.61;96197.25;6813784;29;20215;-81
2020/12/04 07:33:36;;;;;;;12.50;8.73;;;;;;;7.93;46.51;96219.16;6814223;29;20236;-82
2020/12/04 07:36:57;;;;;;;12.53;8.90;;;;;;;8.28;45.84;96203.44;6815004;29;20211;-82
2020/12/04 07:40:19;;;;;;;11.90;8.93;;;;;;;8.14;46.25;96212.91;6811078;29;20217;-83
2020/12/04 07:43:43;;;;;;;12.23;9.17;;;;;;;8.50;45.95;96214.13;6813931;29;20214;-81
2020/12/04 07:47:06;;;;;;;15.90;11.87;;;;;;;7.81;47.84;96207.75;6814169;29;20220;-82
2020/12/04 07:50:27;;;;;;;16.13;10.83;;;;;;;8.64;46.93;96207.25;6808058;29;20210;-80
2020/12/04 07:53:48;;;;;;;11.50;8.90;;;;;;;8.42;46.35;96168.97;6812301;29;20227;-81
2020/12/04 07:57:12;;;;;;;12.50;8.93;;;;;;;8.56;46.42;96172.81;6793956;29;20212;-80
2020/12/04 08:00:33;;;;;;;12.33;9.03;;;;;;;8.32;46.85;96201.84;6790039;29;20325;-80
2020/12/04 08:03:55;;;;;;;11.27;8.30;;;;;;;8.18;47.40;96203.31;6818068;29;20205;-81
2020/12/04 08:07:16;;;;;;;12.83;9.07;;;;;;;8.50;46.32;96208.75;6818589;29;20208;-81
2020/12/04 08:10:37;;;;;;;10.83;8.40;;;;;;;8.82;44.61;96174.63;6817278;29;20220;-81
2020/12/04 08:14:03;;;;;;;10.50;8.07;;;;;;;8.53;45.36;96165.28;6817939;29;20245;-83
2020/12/04 08:17:25;;;;;;;9.97;7.90;;;;;;;9.10;44.43;96167.06;6818272;29;20199;-79
2020/12/04 08:20:46;;;;;;;11.60;8.07;;;;;;;9.49;44.59;96150.31;6817541;29;20231;-81
2020/12/04 08:24:07;;;;;;;11.73;8.27;;;;;;;8.16;46.01;96087.38;6817500;29;20299;-82
2020/12/04 08:27:29;;;;;;;11.73;8.60;;;;;;;9.31;44.95;96123.88;6817953;29;20215;-80
2020/12/04 08:30:51;;;;;;;11.47;9.00;;;;;;;8.45;46.15;96138.91;6817551;29;20241;-83
2020/12/04 08:34:21;;;;;;;11.20;8.63;;;;;;;8.79;45.92;96159.84;6818509;29;20235;-86
2020/12/04 08:37:43;;;;;;;11.27;9.47;;;;;;;8.10;46.83;96160.84;6817901;29;20285;-85
2020/12/04 08:41:04;;;;;;;11.40;9.33;;;;;;;7.32;49.42;96152.44;6818822;29;20260;-87
2020/12/04 08:44:26;;;;;;;10.90;8.53;;;;;;;7.03;50.21;96101.97;6817896;29;20211;-83
2020/12/04 08:47:48;;;;;;;11.13;8.67;;;;;;;7.31;49.64;96094.53;6818093;29;20246;-83
2020/12/04 08:51:12;;;;;;;13.37;9.73;;;;;;;8.22;47.68;96128.50;6817104;29;20229;-82
2020/12/04 08:54:33;;;;;;;11.93;9.30;;;;;;;8.97;46.87;96096.84;6817652;29;20695;-82
2020/12/04 08:57:55;;;;;;;11.87;8.57;;;;;;;8.53;46.99;96112.38;6818383;29;20220;-83
2020/12/04 09:01:16;;;;;;;13.83;9.73;;;;;;;8.41;47.52;96148.53;6816583;29;20234;-83
2020/12/04 09:04:38;;;;;;;13.40;10.50;;;;;;;8.28;47.49;96152.47;6816772;29;20208;-80
2020/12/04 09:08:00;;;;;;;12.07;9.53;;;;;;;8.34;47.04;96145.25;6816971;29;20314;-85
2020/12/04 09:11:21;;;;;;;12.27;10.07;;;;;;;7.87;48.44;96120.09;6814999;29;20239;-84
2020/12/04 09:14:42;;;;;;;14.80;9.57;;;;;;;7.87;47.89;96128.97;6817980;29;20234;-84
2020/12/04 09:18:04;;;;;;;14.90;10.60;;;;;;;8.88;46.49;96131.44;6816625;29;20224;-84
2020/12/04 09:21:26;;;;;;;11.80;9.03;;;;;;;8.70;46.23;96141.78;6816950;29;20234;-84
2020/12/04 09:24:47;;;;;;;12.53;9.17;;;;;;;9.56;45.43;96109.75;6816854;29;20664;-84
2020/12/04 09:28:08;;;;;;;12.10;8.60;;;;;;;10.10;44.38;96137.91;6816455;29;20250;-85
2020/12/04 09:31:33;;;;;;;10.53;8.17;;;;;;;10.18;44.08;96134.66;6815580;29;20241;-84
2020/12/04 09:34:54;;;;;;;9.43;8.20;;;;;;;9.76;43.72;96144.78;6817482;29;20242;-84
2020/12/04 09:38:16;;;;;;;10.17;7.97;;;;;;;9.03;46.44;96148.47;6816699;29;20220;-82
2020/12/04 09:41:42;;;;;;;10.07;8.07;;;;;;;9.28;45.67;96153.97;6815176;29;20238;-82
2020/12/04 09:45:04;;;;;;;10.93;8.43;;;;;;;9.06;46.01;96152.50;6815830;29;20191;-81
2020/12/04 09:48:25;;;;;;;10.77;7.93;;;;;;;9.07;45.90;96143.38;6815538;29;20230;-81
2020/12/04 09:51:46;;;;;;;10.77;8.47;;;;;;;9.51;44.87;96133.94;6815136;29;20243;-81
2020/12/04 09:55:09;;;;;;;9.73;7.93;;;;;;;9.04;45.46;96139.31;6814196;29;20232;-81
2020/12/04 09:58:30;;;;;;;12.47;8.57;;;;;;;9.75;44.67;96098.22;6814997;29;20659;-81
2020/12/04 10:01:53;;;;;;;10.50;8.57;;;;;;;10.51;43.64;96105.34;6828215;29;20304;-81
2020/12/04 10:05:14;;;;;;;11.13;8.17;;;;;;;10.32;43.05;96106.97;6822198;29;20216;-81
2020/12/04 10:08:35;;;;;;;12.07;8.97;;;;;;;9.90;43.84;96094.75;6821406;29;20217;-81
2020/12/04 10:11:57;;;;;;;11.57;9.13;;;;;;;8.75;47.39;96069.28;6820453;29;20711;-81
2020/12/04 10:15:18;;;;;;;12.73;9.43;;;;;;;9.02;47.07;96083.44;6819543;29;20347;-81
2020/12/04 10:18:39;;;;;;;16.03;10.03;;;;;;;9.21;45.66;96091.56;6819337;29;20210;-81
2020/12/04 10:22:01;;;;;;;12.33;8.97;;;;;;;9.14;47.21;96109.81;6817633;29;20224;-81
2020/12/04 10:25:22;;;;;;;12.83;9.47;;;;;;;9.72;45.50;96127.53;6818942;29;20216;-81
2020/12/04 10:28:44;;;;;;;13.33;10.07;;;;;;;8.76;47.44;96121.94;6818263;29;20306;-81
2020/12/04 10:32:06;;;;;;;12.73;9.43;;;;;;;8.54;47.67;96113.22;6815172;29;20239;-81
2020/12/04 10:35:27;;;;;;;14.10;9.93;;;;;;;8.93;47.15;96142.22;6817294;29;20230;-81
2020/12/04 10:38:48;;;;;;;13.87;10.57;;;;;;;9.80;45.74;96135.09;6817855;29;20213;-81
2020/12/04 10:42:10;;;;;;;12.87;9.50;;;;;;;9.49;45.30;96107.28;6816245;29;20230;-81
2020/12/04 10:45:32;;;;;;;12.27;8.87;;;;;;;9.73;45.80;96116.50;6816989;29;20214;-81
2020/12/04 10:48:53;;;;;;;15.50;10.73;;;;;;;10.01;45.52;96074.84;6817656;29;20219;-81
2020/12/04 10:52:14;;;;;;;12.00;8.60;;;;;;;10.30;44.29;96108.28;6817426;29;20235;-81
2020/12/04 10:55:36;;;;;;;11.80;9.43;;;;;;;10.05;44.38;96127.13;6816256;29;20249;-81
2020/12/04 10:58:57;;;;;;;13.33;10.27;;;;;;;9.45;46.01;96059.69;6816933;29;20589;-81
2020/12/04 11:02:25;;;;;;;13.23;9.93;;;;;;;9.34;45.32;96074.16;6817167;29;20701;-81
2020/12/04 11:05:46;;;;;;;13.87;10.70;;;;;;;9.99;45.08;96107.41;6815670;29;20202;-81
2020/12/04 11:09:08;;;;;;;14.00;9.50;;;;;;;9.08;46.07;96088.56;6815017;29;20206;-81
2020/12/04 11:12:29;;;;;;;15.23;10.57;;;;;;;9.32;47.15;96109.38;6815148;29;20228;-87
2020/12/04 11:15:50;;;;;;;13.77;9.70;;;;;;;9.97;45.21;96065.69;6815723;29;20238;-82
2020/12/04 11:19:12;;;;;;;12.73;9.80;;;;;;;9.42;45.94;96119.34;6815437;29;20209;-81
2020/12/04 11:22:34;;;;;;;13.23;9.43;;;;;;;9.62;45.44;96117.56;6815790;29;20711;-80
2020/12/04 11:25:56;;;;;;;19.07;12.60;;;;;;;9.74;46.64;96096.59;6815908;29;20692;-81
2020/12/04 11:29:17;;;;;;;16.67;10.20;;;;;;;10.41;45.19;96089.19;6816834;29;20588;-81
2020/12/04 11:32:38;;;;;;;19.50;13.20;;;;;;;9.70;46.11;96089.34;6813874;29;20240;-81
2020/12/04 11:36:00;;;;;;;15.53;9.60;;;;;;;10.32;45.01;96095.38;6815411;29;20213;-81
2020/12/04 11:39:21;;;;;;;15.80;10.40;;;;;;;10.29;45.21;96077.06;6815203;29;20579;-81
2020/12/04 11:42:43;;;;;;;17.37;12.87;;;;;;;10.73;44.08;96089.69;6815179;29;20245;-81
2020/12/04 11:46:05;;;;;;;15.53;10.33;;;;;;;11.01;43.91;96080.22;6815233;29;20638;-81
2020/12/04 11:49:26;;;;;;;12.87;10.17;;;;;;;10.54;44.15;96055.50;6815189;29;20205;-81
2020/12/04 11:52:48;;;;;;;15.83;10.73;;;;;;;10.81;43.39;96072.19;6814251;29;20230;-81
2020/12/04 11:56:09;;;;;;;14.03;11.07;;;;;;;10.61;44.05;96073.00;6814647;29;20685;-81
2020/12/04 11:59:30;;;;;;;15.43;9.97;;;;;;;11.16;43.46;96082.88;6815137;29;20218;-80
2020/12/04 12:02:52;;;;;;;13.07;9.87;;;;;;;10.99;43.60;96060.81;6815108;29;20229;-81
2020/12/04 12:06:13;;;;;;;15.40;10.43;;;;;;;10.47;43.75;96065.75;6815820;29;20211;-81
2020/12/04 12:09:35;;;;;;;14.23;10.70;;;;;;;10.42;44.24;96080.03;6816091;29;20218;-81
2020/12/04 12:12:56;;;;;;;16.50;11.90;;;;;;;9.91;45.19;96067.59;6815088;29;20240;-81
2020/12/04 12:16:17;;;;;;;16.70;11.23;;;;;;;9.92;45.93;96058.44;6816340;29;20215;-81
2020/12/04 12:19:39;;;;;;;14.23;10.80;;;;;;;10.54;45.56;96071.66;6818375;29;20229;-81
2020/12/04 12:23:00;;;;;;;29.33;14.47;;;;;;;9.03;47.70;96057.09;6815419;29;20230;-81
2020/12/04 12:26:23;;;;;;;14.83;10.80;;;;;;;10.10;46.44;96057.16;6814802;29;20687;-81
2020/12/04 12:29:45;;;;;;;15.53;10.87;;;;;;;9.76;46.93;96064.88;6815009;29;20585;-81
2020/12/04 12:33:09;;;;;;;21.53;12.43;;;;;;;10.14;46.51;96067.09;6816318;29;20302;-79
2020/12/04 12:36:31;;;;;;;34.87;17.20;;;;;;;10.27;45.88;96049.63;6817825;29;20219;-81
2020/12/04 12:39:52;;;;;;;31.73;21.03;;;;;;;10.09;45.72;96055.53;6816591;29;20618;-80
2020/12/04 12:43:14;;;;;;;19.10;14.47;;;;;;;9.79;46.69;96040.13;6814764;29;20602;-82
2020/12/04 12:46:37;;;;;;;16.17;11.83;;;;;;;10.29;44.56;96039.38;6819263;29;20220;-82
2020/12/04 12:49:58;;;;;;;15.60;11.30;;;;;;;10.41;45.07;96040.72;6819608;29;20693;-83
2020/12/04 12:53:20;;;;;;;15.63;10.80;;;;;;;10.31;44.18;96008.41;6818554;29;20245;-83
2020/12/04 12:56:41;;;;;;;15.20;10.70;;;;;;;10.58;44.02;96008.09;6818370;29;20211;-83
2020/12/04 13:00:04;;;;;;;15.77;10.17;;;;;;;10.79;43.75;96032.03;6818569;29;20248;-83
2020/12/04 13:03:25;;;;;;;14.27;10.13;;;;;;;10.84;42.56;96053.56;6819279;29;20237;-83
2020/12/04 13:06:46;;;;;;;13.33;10.43;;;;;;;9.82;44.16;96007.31;6818114;29;20310;-82
2020/12/04 13:10:08;;;;;;;16.73;11.37;;;;;;;10.30;43.81;96014.06;6818138;29;20208;-82
2020/12/04 13:13:29;;;;;;;17.57;12.50;;;;;;;9.30;46.17;96047.00;6818725;29;20233;-82
2020/12/04 13:16:51;;;;;;;14.77;11.60;;;;;;;9.52;46.81;96063.72;6817439;29;20203;-82
2020/12/04 13:20:13;;;;;;;18.73;11.30;;;;;;;9.42;46.83;96017.19;6817744;29;20210;-82
2020/12/04 13:23:34;;;;;;;13.50;10.70;;;;;;;9.69;46.48;96047.38;6818870;29;20233;-82
2020/12/04 13:26:56;;;;;;;17.13;11.50;;;;;;;10.15;45.49;96065.22;6817566;29;20209;-82
2020/12/04 13:30:17;;;;;;;16.60;12.53;;;;;;;10.05;45.35;96035.59;6817278;29;20213;-82
2020/12/04 13:33:39;;;;;;;16.07;12.13;;;;;;;10.34;45.35;96050.16;6818871;29;20219;-81
2020/12/04 13:37:01;;;;;;;18.10;12.07;;;;;;;10.46;45.49;96075.69;6819722;29;20211;-82
2020/12/04 13:40:22;;;;;;;16.57;11.67;;;;;;;10.71;44.91;96097.25;6817103;29;20217;-81
2020/12/04 13:43:43;;;;;;;16.43;11.63;;;;;;;10.38;45.60;96056.59;6816129;29;20213;-82
2020/12/04 13:47:05;;;;;;;16.43;11.80;;;;;;;9.76;46.23;96090.97;6816427;29;20576;-82
2020/12/04 13:50:27;;;;;;;16.87;11.33;;;;;;;10.07;45.11;96063.06;6816041;29;20288;-81
2020/12/04 13:53:48;;;;;;;19.10;12.33;;;;;;;10.22;45.64;96095.38;6815891;29;20226;-87
2020/12/04 13:57:09;;;;;;;18.43;11.43;;;;;;;9.26;46.96;95997.53;6815353;29;20217;-86
2020/12/04 14:00:30;;;;;;;15.57;11.87;;;;;;;9.25;46.92;96071.19;6814879;29;20222;-86
2020/12/04 14:03:54;;;;;;;15.67;10.90;;;;;;;9.83;46.17;96108.47;6816532;29;20209;-86
2020/12/04 14:07:16;;;;;;;17.20;11.67;;;;;;;9.04;47.98;96115.13;6816027;29;20209;-85
2020/12/04 14:10:37;;;;;;;16.40;11.67;;;;;;;8.85;47.53;96104.28;6814808;29;20219;-85
2020/12/04 14:13:58;;;;;;;17.40;11.63;;;;;;;8.91;48.58;96114.00;6815939;29;20737;-87
2020/12/04 14:17:20;;;;;;;15.10;11.50;;;;;;;9.02;47.86;96044.72;6816431;29;20209;-87
2020/12/04 14:20:41;;;;;;;18.63;11.70;;;;;;;9.75;46.16;96086.66;6815410;29;20221;-87
2020/12/04 14:24:04;;;;;;;15.03;12.00;;;;;;;9.47;46.63;96117.50;6815965;29;20203;-87
2020/12/04 14:27:25;;;;;;;24.83;11.93;;;;;;;9.51;46.81;96123.16;6816279;29;20218;-83
2020/12/04 14:30:47;;;;;;;19.47;11.97;;;;;;;9.09;47.72;96090.19;6816293;29;20401;-85
2020/12/04 14:34:08;;;;;;;17.23;12.43;;;;;;;9.73;46.68;96123.75;6816204;29;20234;-84
2020/12/04 14:37:29;;;;;;;23.13;12.73;;;;;;;9.40;47.69;96129.56;6816362;29;20207;-83
2020/12/04 14:40:51;;;;;;;17.40;11.17;;;;;;;9.42;47.91;96141.69;6815578;29;20233;-89
2020/12/04 14:44:12;;;;;;;15.83;11.67;;;;;;;9.88;46.92;96121.94;6815569;29;20215;-87
2020/12/04 14:47:34;;;;;;;17.63;12.13;;;;;;;10.06;46.36;96116.09;6814530;29;20223;-89
2020/12/04 14:50:55;;;;;;;19.07;12.30;;;;;;;10.20;45.84;96084.88;6815184;29;20249;-87
2020/12/04 14:54:16;;;;;;;19.60;13.83;;;;;;;10.43;46.24;96135.50;6815003;29;20241;-92
2020/12/04 14:57:41;;;;;;;18.73;12.70;;;;;;;10.42;46.32;96125.00;6817307;29;20202;-85
2020/12/04 15:01:02;;;;;;;19.80;12.50;;;;;;;10.03;46.32;96054.72;6814641;29;20317;-85
2020/12/04 15:04:23;;;;;;;17.70;12.70;;;;;;;10.44;47.35;96133.59;6793331;29;20575;-84
2020/12/04 15:07:45;;;;;;;20.37;14.63;;;;;;;10.84;45.59;96139.00;6788742;29;20556;-85
2020/12/04 15:11:06;;;;;;;23.20;15.10;;;;;;;10.12;45.98;96122.28;6792512;28;20218;-85
2020/12/04 15:14:32;;;;;;;23.97;15.63;;;;;;;9.61;47.52;96172.41;6822096;28;20226;-83
2020/12/04 15:17:53;;;;;;;27.17;16.87;;;;;;;9.95;47.23;96170.94;6819511;29;20214;-83
2020/12/04 15:21:14;;;;;;;44.87;30.20;;;;;;;9.68;47.08;96134.53;6818098;29;20230;-83
2020/12/04 15:24:35;;;;;;;29.97;20.27;;;;;;;9.84;48.01;96158.53;6818914;29;20211;-82
2020/12/04 15:27:56;;;;;;;53.80;36.33;;;;;;;9.80;49.00;96183.53;6818442;29;20228;-82
2020/12/04 15:31:18;;;;;;;37.50;23.57;;;;;;;10.13;47.94;96173.16;6818173;29;20914;-83
2020/12/04 15:34:41;;;;;;;24.43;17.20;;;;;;;10.01;47.94;96159.13;6818581;29;20605;-82
2020/12/04 15:38:02;;;;;;;26.80;20.03;;;;;;;9.92;48.56;96168.75;6818546;29;20206;-80
2020/12/04 15:41:24;;;;;;;24.13;16.00;;;;;;;10.19;47.56;96174.78;6816246;29;20338;-83
2020/12/04 15:44:45;;;;;;;19.13;13.03;;;;;;;10.11;48.03;96185.28;6828842;29;20586;-81
2020/12/04 15:48:07;;;;;;;18.33;13.20;;;;;;;9.88;48.22;96161.50;6818498;29;20227;-80
2020/12/04 15:51:29;;;;;;;20.83;13.57;;;;;;;9.23;50.30;96182.72;6817602;29;20233;-83
2020/12/04 15:54:50;;;;;;;18.43;14.70;;;;;;;9.38;50.03;96182.78;6815725;29;20231;-83
2020/12/04 15:58:11;;;;;;;22.73;14.87;;;;;;;9.55;49.79;96183.41;6815150;29;20212;-83
2020/12/04 16:01:32;;;;;;;38.20;25.30;;;;;;;9.31;50.15;96161.53;6807562;29;20229;-83
2020/12/04 16:04:54;;;;;;;24.43;17.47;;;;;;;9.65;49.56;96178.09;6816853;29;20199;-82
2020/12/04 16:08:15;;;;;;;30.10;21.47;;;;;;;9.67;49.19;96216.28;6808996;29;20205;-83
2020/12/04 16:11:41;;;;;;;17.63;13.20;;;;;;;9.19;51.02;96205.78;6789496;29;20237;-83
2020/12/04 16:15:02;;;;;;;23.57;13.87;;;;;;;9.33;51.03;96202.38;6791210;29;20217;-83
2020/12/04 16:18:24;;;;;;;20.53;14.47;;;;;;;8.48;52.23;96160.66;6788801;29;20219;-83
2020/12/04 16:21:49;;;;;;;23.67;15.70;;;;;;;8.57;52.42;96120.75;6808438;29;20231;-82
2020/12/04 16:25:10;;;;;;;33.70;22.77;;;;;;;9.18;50.65;96150.44;6821374;29;20197;-82
2020/12/04 16:28:46;;;;;;;24.67;14.93;;;;;;;9.48;50.17;96193.59;6819284;29;20207;-83
2020/12/04 16:32:08;;;;;;;17.33;12.23;;;;;;;9.26;51.22;96206.38;6711884;29;20250;-84
2020/12/04 16:35:29;;;;;;;14.73;10.53;;;;;;;8.81;52.07;96178.38;6712095;29;20235;-83
2020/12/04 16:38:51;;;;;;;14.33;10.27;;;;;;;9.07;52.55;96223.19;6711942;29;20220;-83
2020/12/04 16:42:12;;;;;;;17.50;11.40;;;;;;;8.93;52.48;96210.19;6711449;29;20240;-83
2020/12/04 16:45:33;;;;;;;17.60;12.53;;;;;;;9.10;52.34;96226.19;6712548;29;20681;-83
2020/12/04 16:48:55;;;;;;;17.77;12.97;;;;;;;8.88;51.84;96241.59;6711284;29;20209;-83
2020/12/04 16:52:20;;;;;;;17.73;10.53;;;;;;;7.94;53.33;96204.66;6710539;29;20224;-83
2020/12/04 16:55:42;;;;;;;17.63;12.43;;;;;;;7.73;54.75;96218.88;6711743;29;20227;-84
2020/12/04 16:59:03;;;;;;;14.87;11.00;;;;;;;8.55;52.49;96217.66;6712866;29;20219;-82
2020/12/04 17:02:25;;;;;;;14.20;10.53;;;;;;;8.93;51.57;96217.44;6713965;29;20244;-83
2020/12/04 17:05:46;;;;;;;15.00;10.67;;;;;;;8.93;51.18;96217.44;6712748;29;20679;-83
2020/12/04 17:09:07;;;;;;;13.57;9.87;;;;;;;8.60;52.59;96223.06;6775943;29;20215;-83
2020/12/04 17:12:29;;;;;;;19.60;13.53;;;;;;;8.59;52.89;96232.19;6816665;29;20228;-83
2020/12/04 17:15:50;;;;;;;22.47;16.20;;;;;;;8.05;54.25;96232.41;6817310;29;20599;-83
2020/12/04 17:19:11;;;;;;;16.97;13.17;;;;;;;8.67;52.29;96207.53;6818949;29;20290;-83
2020/12/04 17:22:33;;;;;;;15.73;10.97;;;;;;;8.49;52.64;96207.94;6818091;29;20229;-83
2020/12/04 17:25:54;;;;;;;17.97;12.27;;;;;;;8.19;53.18;96201.44;6817632;29;20208;-84
2020/12/04 17:29:16;;;;;;;17.40;12.10;;;;;;;8.59;52.18;96224.13;6817922;29;20224;-84
2020/12/04 17:32:37;;;;;;;17.83;12.40;;;;;;;8.40;52.29;96214.03;6815027;29;20243;-84
2020/12/04 17:35:58;;;;;;;18.73;12.77;;;;;;;8.13;52.92;96189.84;6818503;29;20287;-83
2020/12/04 17:39:20;;;;;;;20.93;13.20;;;;;;;8.28;52.70;96200.75;6818527;29;20212;-83
2020/12/04 17:42:41;;;;;;;19.23;13.03;;;;;;;8.34;52.53;96217.72;6818307;29;20698;-82
2020/12/04 17:46:04;;;;;;;15.30;12.07;;;;;;;8.52;52.12;96212.81;6818231;29;20207;-83
2020/12/04 17:49:25;;;;;;;20.20;12.50;;;;;;;8.68;51.51;96230.69;6818592;29;20547;-83
2020/12/04 17:52:46;;;;;;;19.20;13.37;;;;;;;8.61;50.88;96195.16;6816248;29;20240;-83
2020/12/04 17:56:07;;;;;;;22.10;13.13;;;;;;;8.71;50.99;96216.72;6816104;29;20224;-82
2020/12/04 17:59:28;;;;;;;21.07;14.73;;;;;;;8.70;51.48;96219.66;6816947;29;20223;-83
2020/12/04 18:02:51;;;;;;;18.70;14.30;;;;;;;8.06;52.96;96205.34;6797515;29;20706;-83
2020/12/04 18:06:12;;;;;;;19.23;13.80;;;;;;;8.10;53.76;96238.66;6790215;29;20633;-83
2020/12/04 18:09:33;;;;;;;18.20;13.27;;;;;;;8.28;53.14;96246.41;6790152;29;20206;-83
2020/12/04 18:12:55;;;;;;;25.00;16.13;;;;;;;8.34;52.62;96241.88;6789553;29;20241;-82
2020/12/04 18:16:16;;;;;;;20.23;13.97;;;;;;;8.02;53.53;96244.44;6788784;29;20256;-82
2020/12/04 18:19:38;;;;;;;18.03;13.53;;;;;;;8.20;52.91;96238.78;6801131;29;20204;-83
2020/12/04 18:23:00;;;;;;;33.73;23.33;;;;;;;8.27;52.28;96242.09;6815228;29;20224;-83
2020/12/04 18:26:21;;;;;;;40.80;30.43;;;;;;;8.26;52.24;96229.72;6815471;29;20227;-84
2020/12/04 18:29:42;;;;;;;24.20;16.37;;;;;;;7.93;53.45;96231.72;6816325;29;20203;-84
2020/12/04 18:33:03;;;;;;;22.20;15.27;;;;;;;8.17;52.94;96228.53;6818982;29;20240;-84
2020/12/04 18:36:25;;;;;;;40.60;24.20;;;;;;;8.22;52.67;96217.88;6818747;29;20781;-84
2020/12/04 18:39:47;;;;;;;28.23;17.23;;;;;;;8.00;53.76;96229.66;6817394;29;20208;-84
2020/12/04 18:43:08;;;;;;;22.93;15.73;;;;;;;7.55;53.78;96146.03;6808172;28;20268;-84
2020/12/04 18:46:29;;;;;;;18.87;12.70;;;;;;;7.76;53.61;96185.41;6817335;29;20200;-83
2020/12/04 18:49:51;;;;;;;22.10;14.20;;;;;;;7.88;53.49;96219.06;6817647;29;20707;-84
2020/12/04 18:53:13;;;;;;;23.80;15.50;;;;;;;7.46;54.95;96219.88;6816755;29;20232;-84
2020/12/04 18:56:35;;;;;;;20.43;15.33;;;;;;;7.51;55.33;96218.09;6816312;29;20228;-84
2020/12/04 18:59:56;;;;;;;22.33;15.63;;;;;;;7.91;53.97;96233.88;6816370;29;20210;-82
2020/12/04 19:03:17;;;;;;;21.27;14.93;;;;;;;7.68;54.26;96231.44;6805546;29;20230;-83
2020/12/04 19:06:38;;;;;;;22.87;15.93;;;;;;;7.51;54.73;96238.72;6815856;29;20664;-83
2020/12/04 19:10:01;;;;;;;24.13;16.40;;;;;;;7.68;53.91;96223.38;6812759;29;20708;-83
2020/12/04 19:13:22;;;;;;;18.37;14.30;;;;;;;7.70;53.67;96235.50;6814003;29;20232;-83
2020/12/04 19:16:45;;;;;;;22.40;16.27;;;;;;;7.80;53.08;96245.53;6813555;29;20294;-83
2020/12/04 19:20:07;;;;;;;23.40;16.63;;;;;;;7.55;53.57;96243.31;6811702;29;20210;-82
2020/12/04 19:23:28;;;;;;;30.33;19.80;;;;;;;7.40;54.93;96228.91;6812493;29;20228;-83
2020/12/04 19:26:51;;;;;;;28.93;17.37;;;;;;;6.93;55.83;96227.69;6796171;29;20223;-81
2020/12/04 19:30:12;;;;;;;25.47;17.07;;;;;;;6.93;56.02;96235.72;6787325;29;20560;-83
2020/12/04 19:33:33;;;;;;;25.13;17.17;;;;;;;6.34;55.41;96091.88;6787372;29;20220;-83
2020/12/04 19:36:57;;;;;;;24.57;16.20;;;;;;;6.86;55.67;96217.16;6788885;29;20214;-83
2020/12/04 19:40:18;;;;;;;31.17;21.30;;;;;;;7.12;56.17;96239.75;6786831;29;20215;-84
2020/12/04 19:43:40;;;;;;;21.33;15.07;;;;;;;7.47;55.01;96248.31;6787228;29;20209;-82
2020/12/04 19:47:02;;;;;;;20.23;14.47;;;;;;;7.52;54.61;96230.44;6787081;29;20578;-82
2020/12/04 19:50:23;;;;;;;21.33;14.87;;;;;;;6.64;55.16;96191.34;6806371;29;20212;-85
2020/12/04 19:53:44;;;;;;;24.97;16.53;;;;;;;7.27;54.94;96202.47;6812517;29;20219;-84
2020/12/04 19:57:06;;;;;;;22.77;15.83;;;;;;;7.26;55.08;96203.53;6817638;29;20207;-84
2020/12/04 20:00:28;;;;;;;23.10;16.60;;;;;;;7.16;54.59;96196.19;6817282;29;20212;-84
2020/12/04 20:03:49;;;;;;;24.90;15.07;;;;;;;7.22;54.73;96194.38;6817625;29;20299;-84
2020/12/04 20:07:10;;;;;;;21.90;14.87;;;;;;;7.08;54.53;96198.47;6817929;29;20213;-83
2020/12/04 20:10:31;;;;;;;22.77;15.30;;;;;;;7.07;54.94;96223.63;6817571;29;20212;-83
2020/12/04 20:13:52;;;;;;;25.40;17.20;;;;;;;6.42;55.82;96209.22;6817855;29;20207;-84